Accueil
METAR-TAF:

METAR-TAF

Aéroports :

Aéroport de Fukushima

Kōriyama, Japon

latitude: 37-24N, longitude: 140-23E, altitude: 372 m

Observation

Le bulletin a été fait il y a 37 minutes, à 04:00 UTC
Vent 8 kt de sud, variant entre sud-est et sud-ouest
Température 15°C
Humidité 25%
Pression 1018 hPa
Visibilité 10 km ou plus
Quelques nuages à une hauteur de 5000 ft

METAR: RJSF 030400Z 19008KT 130V220 9999 FEW050 15/M05 Q1018

Heure: 13:37 (04:37 UTC)

Prévision

Le bulletin a été fait il y a 5 heures et 31 minutes, à 23:06 UTC
Prévision valable du 03 à 00 UTC au 04 à 06 UTC
Vent 5 kt de nord
Visibilité 10 km ou plus
Quelques nuages à une hauteur de 4000 ft
Evoluant progressivement
du 03 à 01 UTC au 03 à 03 UTC
Vent 5 kt de sud/sud-ouest
Temporairement
du 03 à 18 UTC au 04 à 00 UTC
Visibilité: 3000 m
brume

TAF: RJSF 022306Z 0300/0406 36005KT 9999 FEW040 BECMG 0301/0303 20005KT TEMPO 0318/0400 3000 BR

Observations et prévisions météorologiques de plus de 4000 aéroports (messages METAR et TAF).

Les stations disponibles sont représentées par des disques jaunes et rouges sur la carte.

Passer la souris dessus pour voir le nom de la station.

Cliquer dessus pour voir les observations et prévisions météorologiques.

Pour changer de carte: cliquez sur les boutons verts avec une croix noire pour zoomer, sur le bouton vert avec un tiret pour effectuer un zoom arrière, ou sur les flèches vertes pour les cartes adjacentes.


METAR-TAF: